Aérodrome :
LOGIN :

S'inscrire | Disclaimer

   EN    FR    IT 

 










Légende :    VFR   VFR Marginal   IFR   IFR Intensif   IFR Très Intensif
Visi : 
Plafond : 
>= 8 km
>= 3000ft
5 à 8 km
1000 à 3000 ft
1500m à 5 km
500 à 1000 ft
800 à 1500m
200 à 500 ft
< 800m
< 200 ft
Symboles :   Orages  Brouillard  Fortes neiges  Fortes précipitations  Vent > 20 kt
SIGMETs :   Divers  Orages  Givrage  Turbulence  Onde Orograph.  Cendres Volcan.







- Altitude de l'aérodrome : 1363 ft


ETIC - Grafenwohr Army Air Field

METARs EXPIRÉS :
  • 241358Z AUTO 29012G20KT 9999 FEW210 27/10 A2997 RMK AO2 SLP137
  • 241258Z AUTO 26013G17KT 9999 CLR 26/10 A2998 RMK AO2 SLP140
  • 241204Z AUTO 23011G18KT 9999 CLR 26/10 A2999 RMK AO2 WSHFT 1150 SLP144
  • 241158Z AUTO 27011G19KT 9999 CLR 26/10 A2999 RMK AO2 SLP144 60000 57010
  • 241143Z AUTO 24011G18KT 9999 CLR 26/10 A2999 RMK AO2 WSHFT 41 SLP144

Prévision TAF périmée.
Pas de NOTAMs connus pour ce terrain.



MET'MAP, la Météo Aéronautique d'un coup d'oeil ! - Copyright ORBIFLY Décembre 2007 - Disclaimer

ORBIFLY MET'MAP TEAM :

Programmation & Développement : Alexandra Zaïnal
Conception & Développement : Baudouin d'Aumeries
Co-Programmation & Développement : Marc-Olivier Méhu
Soutien technique & logistique : Manuel Goepfert

Contact : metmap@orbifly.com




SOURCES & CREDITS :

   NOAA